Time;durP1;ratioP1;P1;durP2;ratioP2;P2;SDS_P1;SDS_P2;PMS_P1;PMS_P2;Temp;Humidity;BMP_temperature;BMP_pressure;BME280_temperature;BME280_humidity;BME280_pressure;Samples;Min_cycle;Max_cycle;Signal;HPM_P1;HPM_P2
2021/07/15 00:02:25;;;;;;;1.65;1.52;;;23.20;92.60;;;;;;5025626;28;20527;-77
2021/07/15 00:04:50;;;;;;;2.10;1.30;;;23.20;92.60;;;;;;5029792;28;20049;-78
2021/07/15 00:07:30;;;;;;;2.75;1.67;;;23.70;92.70;;;;;;5027657;28;20413;-78
2021/07/15 00:10:06;;;;;;;2.85;1.70;;;23.20;92.50;;;;;;5011952;28;20052;-77
2021/07/15 00:12:31;;;;;;;1.80;1.63;;;23.20;92.50;;;;;;5040395;28;20026;-77
2021/07/15 00:14:57;;;;;;;1.60;1.42;;;23.20;92.50;;;;;;5013200;28;20072;-77
2021/07/15 00:17:22;;;;;;;2.00;1.50;;;23.20;92.50;;;;;;5031473;28;20029;-77
2021/07/15 00:19:48;;;;;;;2.30;1.85;;;23.10;92.50;;;;;;5025588;28;20029;-78
2021/07/15 00:22:13;;;;;;;2.03;1.77;;;23.10;92.50;;;;;;5020512;28;20029;-77
2021/07/15 00:24:39;;;;;;;2.10;1.58;;;23.00;92.50;;;;;;5027413;28;20447;-77
2021/07/15 00:27:04;;;;;;;2.47;1.80;;;23.10;92.60;;;;;;5026681;28;20566;-77
2021/07/15 00:29:30;;;;;;;1.77;1.45;;;23.10;92.60;;;;;;5027742;28;20037;-77
2021/07/15 00:31:56;;;;;;;1.90;1.70;;;23.10;92.50;;;;;;5025203;28;20021;-77
2021/07/15 00:34:21;;;;;;;1.90;1.75;;;23.10;92.50;;;;;;5026477;28;20018;-77
2021/07/15 00:36:47;;;;;;;1.77;1.50;;;23.10;92.60;;;;;;5017532;28;20087;-77
2021/07/15 00:39:12;;;;;;;3.15;1.60;;;23.10;92.50;;;;;;5024680;28;20056;-78
2021/07/15 00:41:38;;;;;;;1.83;1.73;;;23.10;92.50;;;;;;5017263;28;20025;-77
2021/07/15 00:44:03;;;;;;;2.05;1.80;;;23.10;92.60;;;;;;5031742;28;20030;-77
2021/07/15 00:46:29;;;;;;;1.60;1.50;;;23.10;92.60;;;;;;5026279;28;20029;-77
2021/07/15 00:48:54;;;;;;;4.72;1.77;;;23.10;92.60;;;;;;5021706;28;20022;-77
2021/07/15 00:51:23;;;;;;;2.33;1.80;;;23.30;92.60;;;;;;5024891;28;20063;-77
2021/07/15 00:53:51;;;;;;;1.92;1.73;;;23.00;92.50;;;;;;5013718;28;20456;-78
2021/07/15 00:56:16;;;;;;;1.85;1.52;;;23.10;92.50;;;;;;5019878;28;20076;-77
2021/07/15 00:58:42;;;;;;;3.50;1.80;;;23.00;92.50;;;;;;5026556;28;20535;-78
2021/07/15 01:01:09;;;;;;;3.83;1.55;;;23.10;92.50;;;;;;5019459;28;20828;-77
2021/07/15 01:03:35;;;;;;;1.95;1.67;;;23.10;92.50;;;;;;5025578;28;20038;-77
2021/07/15 01:06:00;;;;;;;2.22;1.60;;;23.20;92.60;;;;;;5024908;28;20041;-77
2021/07/15 01:08:26;;;;;;;3.47;1.77;;;23.00;92.50;;;;;;5013713;28;20055;-77
2021/07/15 01:11:23;;;;;;;3.38;1.80;;;23.10;92.50;;;;;;5030722;28;20048;-77
2021/07/15 01:13:49;;;;;;;1.58;1.48;;;23.00;92.80;;;;;;5030397;28;20060;-78
2021/07/15 01:16:21;;;;;;;1.40;1.30;;;23.00;92.50;;;;;;5020824;28;20488;-78
2021/07/15 01:19:17;;;;;;;1.48;1.38;;;23.00;92.50;;;;;;5030437;28;20041;-77
2021/07/15 01:21:55;;;;;;;1.45;1.25;;;23.00;92.50;;;;;;5021270;28;20484;-78
2021/07/15 01:24:39;;;;;;;2.95;1.90;;;23.00;92.50;;;;;;5022740;28;20764;-78
2021/07/15 01:27:16;;;;;;;1.52;1.10;;;22.90;92.50;;;;;;5023545;28;20087;-78
2021/07/15 01:29:56;;;;;;;2.30;1.38;;;23.00;92.50;;;;;;5034108;28;20022;-78
2021/07/15 01:32:23;;;;;;;5.60;1.98;;;22.90;92.60;;;;;;5022552;28;20432;-78
2021/07/15 01:34:50;;;;;;;2.10;1.48;;;22.90;92.60;;;;;;5028085;28;20026;-78
2021/07/15 01:41:08;;;;;;;1.58;1.48;;;23.50;92.80;;;;;;5009819;28;20042;-77
2021/07/15 01:43:50;;;;;;;1.95;1.40;;;23.30;92.60;;;;;;5021657;28;20088;-77
2021/07/15 01:46:15;;;;;;;3.17;1.40;;;23.00;92.50;;;;;;5007646;28;20033;-78
2021/07/15 01:48:41;;;;;;;1.20;1.10;;;23.80;92.70;;;;;;5026691;28;20034;-78
2021/07/15 01:51:06;;;;;;;1.65;1.23;;;22.90;92.50;;;;;;5022763;28;20033;-78
2021/07/15 01:53:32;;;;;;;1.73;1.20;;;22.90;92.40;;;;;;5017775;28;20079;-78
2021/07/15 01:55:58;;;;;;;1.30;0.93;;;22.80;92.50;;;;;;5001847;28;20037;-78
2021/07/15 01:58:24;;;;;;;1.45;1.08;;;22.90;92.50;;;;;;5043559;28;20029;-78
2021/07/15 02:00:50;;;;;;;2.03;1.40;;;22.80;92.50;;;;;;4999862;28;20075;-78
2021/07/15 02:03:15;;;;;;;1.40;1.10;;;22.90;92.50;;;;;;5020014;28;20066;-78
2021/07/15 02:05:41;;;;;;;3.03;1.20;;;22.90;92.50;;;;;;5023046;28;20030;-78
2021/07/15 02:08:07;;;;;;;2.15;1.00;;;22.90;92.50;;;;;;5023483;28;20040;-78
2021/07/15 02:10:32;;;;;;;1.55;1.13;;;23.00;92.50;;;;;;5026555;28;20605;-78
2021/07/15 02:12:58;;;;;;;1.55;1.13;;;22.90;92.50;;;;;;5020921;28;20030;-78
2021/07/15 02:15:27;;;;;;;2.67;1.05;;;22.90;92.50;;;;;;5015648;28;20068;-78
2021/07/15 02:17:53;;;;;;;1.15;0.77;;;22.90;92.50;;;;;;5011846;28;20098;-78
2021/07/15 02:20:19;;;;;;;2.40;0.95;;;22.80;92.50;;;;;;5023967;28;20033;-78
2021/07/15 02:22:45;;;;;;;0.80;0.80;;;22.80;92.50;;;;;;5010871;28;20073;-78
2021/07/15 02:25:11;;;;;;;1.30;1.00;;;22.80;92.50;;;;;;5005881;28;20446;-80
2021/07/15 02:27:37;;;;;;;1.30;1.08;;;22.80;92.50;;;;;;5016299;28;20045;-80
2021/07/15 02:30:08;;;;;;;2.15;0.80;;;22.80;92.50;;;;;;5019366;28;20155;-80
2021/07/15 02:32:34;;;;;;;4.65;0.98;;;22.80;92.60;;;;;;5025291;28;20041;-80
2021/07/15 02:35:09;;;;;;;0.90;0.90;;;22.80;92.60;;;;;;5023183;28;20052;-81
2021/07/15 02:37:36;;;;;;;2.28;0.80;;;22.80;92.60;;;;;;5016624;28;20053;-81
2021/07/15 02:40:10;;;;;;;2.58;1.00;;;22.80;92.60;;;;;;5011052;28;20046;-81
2021/07/15 02:42:37;;;;;;;1.05;0.82;;;22.80;92.50;;;;;;5028362;28;20033;-81
2021/07/15 02:45:07;;;;;;;0.95;0.80;;;22.80;92.50;;;;;;5023193;28;20068;-81
2021/07/15 02:47:32;;;;;;;1.38;0.95;;;22.80;92.60;;;;;;5018274;28;20033;-81
2021/07/15 02:49:58;;;;;;;3.42;1.10;;;22.80;92.60;;;;;;5021411;28;20029;-81
2021/07/15 02:52:23;;;;;;;1.95;0.90;;;22.80;92.50;;;;;;5023548;28;20468;-81
2021/07/15 02:54:49;;;;;;;2.35;1.05;;;22.80;92.50;;;;;;5017335;28;20028;-80
2021/07/15 02:57:49;;;;;;;1.35;1.00;;;22.80;92.50;;;;;;5013918;28;20105;-81
2021/07/15 03:00:16;;;;;;;2.13;0.93;;;22.80;92.60;;;;;;5007725;28;20417;-81
2021/07/15 03:03:07;;;;;;;1.35;0.90;;;22.80;92.50;;;;;;5025104;28;20041;-81
2021/07/15 03:05:35;;;;;;;3.67;0.90;;;22.80;92.50;;;;;;5009311;28;20042;-81
2021/07/15 03:08:04;;;;;;;0.93;0.73;;;22.80;92.50;;;;;;5018010;28;20091;-81
2021/07/15 03:10:30;;;;;;;1.00;0.90;;;22.80;92.50;;;;;;5023095;28;20061;-80
2021/07/15 03:12:56;;;;;;;3.17;1.10;;;22.80;92.50;;;;;;5001645;28;20061;-81
2021/07/15 03:15:35;;;;;;;4.72;1.10;;;22.80;92.50;;;;;;5000833;28;20049;-81
2021/07/15 03:18:04;;;;;;;2.22;1.08;;;23.00;92.60;;;;;;5007440;28;20053;-81
2021/07/15 03:20:32;;;;;;;3.17;1.15;;;22.70;92.60;;;;;;5015956;28;20021;-81
2021/07/15 03:22:59;;;;;;;1.00;0.90;;;22.70;92.50;;;;;;5028107;28;20025;-80
2021/07/15 03:25:25;;;;;;;1.75;0.95;;;22.70;92.50;;;;;;5014490;28;20093;-80
2021/07/15 03:27:51;;;;;;;5.53;1.15;;;22.70;92.50;;;;;;5014091;28;20045;-81
2021/07/15 03:30:17;;;;;;;1.35;1.20;;;22.70;92.50;;;;;;5018553;28;20025;-81
2021/07/15 03:32:44;;;;;;;1.48;1.10;;;22.70;92.90;;;;;;5022155;28;20037;-81
2021/07/15 03:35:10;;;;;;;3.33;1.00;;;22.70;92.60;;;;;;5041572;28;20113;-81
2021/07/15 03:37:37;;;;;;;4.35;1.10;;;22.70;92.50;;;;;;5025453;28;20021;-81
2021/07/15 03:40:03;;;;;;;1.23;1.00;;;22.70;92.50;;;;;;5028696;28;20500;-81
2021/07/15 03:42:29;;;;;;;2.22;1.10;;;22.70;92.50;;;;;;5009091;28;20026;-80
2021/07/15 03:44:54;;;;;;;2.33;1.15;;;22.70;92.50;;;;;;5024562;28;20542;-80
2021/07/15 03:47:21;;;;;;;5.95;1.50;;;22.70;92.50;;;;;;5012184;28;20030;-80
2021/07/15 03:49:47;;;;;;;4.93;1.20;;;22.80;92.50;;;;;;5021840;28;20036;-80
2021/07/15 03:52:13;;;;;;;2.47;1.00;;;22.70;92.80;;;;;;5004237;28;20392;-80
2021/07/15 03:54:38;;;;;;;3.10;1.20;;;22.70;92.50;;;;;;5025755;28;20507;-80
2021/07/15 03:57:04;;;;;;;3.22;1.00;;;22.70;92.50;;;;;;5026173;28;20053;-80
2021/07/15 03:59:29;;;;;;;1.33;1.15;;;22.70;92.50;;;;;;5034303;28;20036;-81
2021/07/15 04:01:57;;;;;;;1.77;1.00;;;22.70;92.60;;;;;;5011301;28;20508;-81
2021/07/15 04:04:25;;;;;;;2.42;1.10;;;22.70;92.60;;;;;;5011218;28;20381;-81
2021/07/15 04:06:50;;;;;;;1.98;1.00;;;22.70;92.60;;;;;;5003823;28;20508;-81
2021/07/15 04:09:16;;;;;;;1.33;1.08;;;22.70;92.60;;;;;;5022660;28;20018;-81
2021/07/15 04:11:43;;;;;;;3.22;1.25;;;22.70;92.60;;;;;;5024272;28;20028;-81
2021/07/15 04:14:12;;;;;;;1.38;1.15;;;22.70;92.60;;;;;;5027392;28;20037;-81
2021/07/15 04:17:07;;;;;;;1.73;1.17;;;22.70;92.60;;;;;;5016817;28;20040;-81
2021/07/15 04:19:33;;;;;;;;;;;22.70;92.60;;;;;;5013093;28;20037;-80
2021/07/15 04:21:59;;;;;;;2.35;1.02;;;22.70;92.60;;;;;;5019788;28;19945;-80
2021/07/15 04:24:24;;;;;;;2.45;0.93;;;22.70;92.60;;;;;;5023178;28;20123;-80
2021/07/15 04:26:50;;;;;;;1.65;1.02;;;22.70;92.60;;;;;;5000424;28;20033;-80
2021/07/15 04:29:16;;;;;;;1.27;0.75;;;22.60;92.50;;;;;;5015312;28;20124;-80
2021/07/15 04:31:48;;;;;;;4.78;1.42;;;22.70;92.60;;;;;;5020968;28;20412;-80
2021/07/15 04:34:13;;;;;;;1.10;1.00;;;22.60;92.60;;;;;;5020917;28;20033;-81
2021/07/15 04:36:39;;;;;;;1.55;0.82;;;22.70;92.60;;;;;;5029328;28;20018;-80
2021/07/15 04:39:04;;;;;;;4.05;0.95;;;22.70;92.60;;;;;;5041632;28;20030;-81
2021/07/15 04:41:30;;;;;;;3.90;1.10;;;22.70;92.60;;;;;;5010423;28;20095;-80
2021/07/15 04:43:56;;;;;;;2.22;1.10;;;22.70;92.60;;;;;;5016141;28;20030;-80
2021/07/15 04:46:21;;;;;;;1.30;0.88;;;22.60;92.60;;;;;;5009866;28;20025;-81
2021/07/15 04:48:47;;;;;;;0.90;0.75;;;22.60;92.60;;;;;;5038708;28;20365;-80
2021/07/15 04:51:15;;;;;;;0.82;0.80;;;22.70;92.60;;;;;;5030563;28;20483;-80
2021/07/15 04:53:40;;;;;;;1.25;1.15;;;22.60;92.60;;;;;;5012449;28;20064;-80
2021/07/15 04:56:06;;;;;;;1.58;0.93;;;22.60;92.50;;;;;;5029797;28;20373;-80
2021/07/15 04:58:32;;;;;;;1.90;1.00;;;22.60;92.50;;;;;;5014949;28;20544;-80
2021/07/15 05:00:57;;;;;;;3.80;0.93;;;22.60;92.50;;;;;;5005643;28;20048;-80
2021/07/15 05:03:30;;;;;;;1.83;1.00;;;22.70;92.50;;;;;;5000248;28;20108;-80
2021/07/15 05:05:56;;;;;;;2.95;0.93;;;22.70;92.50;;;;;;5030957;28;20033;-81
2021/07/15 05:08:25;;;;;;;2.17;1.17;;;22.60;92.50;;;;;;5028997;28;20380;-80
2021/07/15 05:10:50;;;;;;;4.43;2.55;;;22.70;92.40;;;;;;5016661;28;20033;-80
2021/07/15 05:13:16;;;;;;;6.80;5.57;;;22.60;92.40;;;;;;5019753;28;20079;-81
2021/07/15 05:15:41;;;;;;;7.95;7.25;;;22.70;92.50;;;;;;5024244;28;20076;-79
2021/07/15 05:18:07;;;;;;;6.95;5.55;;;22.70;92.50;;;;;;5026896;28;20116;-76
2021/07/15 10:31:48;;;;;;;8.88;6.63;;;22.40;93.90;;;;;;5117597;27;20311;-56
2021/07/15 10:34:13;;;;;;;9.23;6.75;;;22.70;93.40;;;;;;5105060;28;20039;-56
2021/07/15 10:36:39;;;;;;;13.02;7.10;;;22.80;93.10;;;;;;5102079;28;20035;-56
2021/07/15 10:39:11;;;;;;;8.55;6.40;;;23.00;93.00;;;;;;5102459;28;20085;-56
2021/07/15 10:41:37;;;;;;;7.28;5.40;;;23.10;92.60;;;;;;5104868;28;20078;-55
2021/07/15 10:44:03;;;;;;;7.70;5.82;;;23.20;92.30;;;;;;5104960;28;20027;-56
2021/07/15 10:46:30;;;;;;;8.48;6.32;;;23.20;92.20;;;;;;5104413;28;20031;-56
2021/07/15 10:48:56;;;;;;;10.38;6.20;;;23.20;92.00;;;;;;5082554;28;20522;-56
2021/07/15 10:51:21;;;;;;;11.55;6.47;;;23.20;92.20;;;;;;5070053;28;20263;-56
2021/07/15 10:53:47;;;;;;;8.90;6.30;;;23.20;92.20;;;;;;5104318;28;20036;-55
2021/07/15 10:56:16;;;;;;;7.65;6.95;;;23.30;92.10;;;;;;5086529;28;20051;-55
2021/07/15 10:58:49;;;;;;;8.43;6.90;;;23.20;92.20;;;;;;5087184;28;20027;-56
2021/07/15 11:01:35;;;;;;;10.60;6.75;;;23.20;92.10;;;;;;5104146;28;20390;-55
2021/07/15 11:04:08;;;;;;;10.32;7.45;;;23.20;92.10;;;;;;5104725;28;20035;-56
2021/07/15 11:06:56;;;;;;;9.07;7.10;;;23.20;92.00;;;;;;5090000;28;20032;-57
2021/07/15 11:09:28;;;;;;;7.40;6.47;;;23.10;92.00;;;;;;5094443;28;20073;-55
2021/07/15 11:11:54;;;;;;;10.25;6.93;;;23.20;92.00;;;;;;5105303;28;20082;-57
2021/07/15 11:15:11;;;;;;;7.65;6.15;;;23.20;92.00;;;;;;5104457;28;20307;-57
2021/07/15 11:17:40;;;;;;;9.70;5.60;;;23.10;92.10;;;;;;5042196;28;20040;-55
2021/07/15 11:20:13;;;;;;;6.40;5.65;;;23.20;92.00;;;;;;5084599;28;20034;-54
2021/07/15 11:22:42;;;;;;;7.53;5.53;;;23.20;92.00;;;;;;5097849;28;20027;-55
2021/07/15 11:25:27;;;;;;;7.05;4.82;;;23.30;91.90;;;;;;5102395;28;20502;-55
2021/07/15 11:27:57;;;;;;;11.68;5.93;;;23.30;91.80;;;;;;5095323;28;20036;-55
2021/07/15 11:30:34;;;;;;;6.30;5.20;;;23.40;91.80;;;;;;5094210;28;20406;-56
2021/07/15 11:33:21;;;;;;;5.72;5.18;;;23.40;91.80;;;;;;5071234;28;20065;-58
2021/07/15 11:36:10;;;;;;;6.35;5.75;;;23.50;91.80;;;;;;5065347;28;20029;-57
2021/07/15 11:38:44;;;;;;;6.53;5.85;;;23.50;91.80;;;;;;5063913;28;20025;-58
2021/07/15 11:41:12;;;;;;;7.97;6.40;;;23.50;91.70;;;;;;5067336;28;20073;-59
2021/07/15 11:43:57;;;;;;;9.93;6.55;;;23.60;91.70;;;;;;5019052;28;20034;-57
2021/07/15 11:46:34;;;;;;;8.85;6.97;;;23.50;91.70;;;;;;5051416;28;20476;-56
2021/07/15 11:49:10;;;;;;;9.48;7.80;;;23.50;91.70;;;;;;5067975;28;20154;-58
2021/07/15 11:51:43;;;;;;;13.98;7.85;;;23.50;91.80;;;;;;5069255;28;20490;-57
2021/07/15 11:54:27;;;;;;;9.07;7.82;;;23.50;91.80;;;;;;5069083;28;20039;-56
2021/07/15 11:57:01;;;;;;;11.43;8.00;;;23.50;91.80;;;;;;5055273;28;20021;-57
2021/07/15 11:59:43;;;;;;;13.85;8.20;;;23.50;91.80;;;;;;5031997;28;20025;-56
2021/07/15 12:02:37;;;;;;;8.45;7.68;;;23.40;91.80;;;;;;5050102;28;20028;-56
2021/07/15 12:05:07;;;;;;;8.65;7.75;;;23.40;91.90;;;;;;5016579;28;20013;-56
2021/07/15 12:07:56;;;;;;;9.75;8.50;;;23.40;92.00;;;;;;5064295;28;20035;-57
2021/07/15 12:10:25;;;;;;;14.05;8.80;;;23.40;92.00;;;;;;5054076;28;20032;-56
2021/07/15 12:12:52;;;;;;;11.02;9.15;;;23.30;92.00;;;;;;5068683;28;20020;-57
2021/07/15 12:15:20;;;;;;;10.68;8.90;;;23.30;92.10;;;;;;5059592;28;20157;-56
2021/07/15 12:17:51;;;;;;;11.68;9.90;;;23.30;92.10;;;;;;5069650;28;20048;-57
2021/07/15 12:20:17;;;;;;;12.55;10.48;;;23.30;92.20;;;;;;5069554;28;20150;-56
2021/07/15 12:22:48;;;;;;;11.75;10.65;;;23.30;92.20;;;;;;5067591;28;20028;-56
2021/07/15 12:25:22;;;;;;;12.27;10.60;;;23.30;92.20;;;;;;5069514;28;20032;-57
2021/07/15 12:27:50;;;;;;;12.95;11.60;;;23.30;92.20;;;;;;5053668;28;20024;-56
2021/07/15 12:30:16;;;;;;;13.68;11.77;;;23.30;92.10;;;;;;5005258;28;20501;-56
2021/07/15 12:32:55;;;;;;;14.18;9.77;;;23.30;92.10;;;;;;5026426;28;20396;-57
2021/07/15 12:35:20;;;;;;;10.63;8.05;;;23.30;92.10;;;;;;5029889;28;20476;-57
2021/07/15 12:37:46;;;;;;;10.23;7.07;;;23.40;92.10;;;;;;5022514;28;20039;-57
2021/07/15 12:40:11;;;;;;;9.25;6.53;;;23.60;91.90;;;;;;5026053;28;20532;-58
2021/07/15 12:42:37;;;;;;;11.27;6.53;;;23.80;91.80;;;;;;5012715;28;20042;-57
2021/07/15 12:45:19;;;;;;;15.57;10.95;;;24.00;91.70;;;;;;5009298;28;20061;-57
2021/07/15 12:48:01;;;;;;;21.67;13.65;;;24.00;91.80;;;;;;5009323;28;20034;-56
2021/07/15 12:50:27;;;;;;;17.52;13.35;;;24.20;92.00;;;;;;5008841;28;20046;-57
2021/07/15 12:53:15;;;;;;;16.67;13.32;;;24.10;91.90;;;;;;5005520;28;20088;-57
2021/07/15 12:55:41;;;;;;;19.48;14.32;;;24.20;91.80;;;;;;5014439;28;20104;-57
2021/07/15 12:58:07;;;;;;;21.45;13.90;;;24.20;91.70;;;;;;5004688;28;20105;-57
2021/07/15 13:00:33;;;;;;;16.95;13.20;;;24.30;91.70;;;;;;5004942;28;20180;-57
2021/07/15 13:03:00;;;;;;;21.88;14.30;;;24.30;91.50;;;;;;5008547;28;20060;-57
2021/07/15 13:05:25;;;;;;;22.40;15.27;;;24.20;91.90;;;;;;5008055;28;20029;-57
2021/07/15 13:07:51;;;;;;;23.73;15.85;;;24.20;91.60;;;;;;5007883;28;20026;-57
2021/07/15 13:15:53;;;;;;;19.38;15.18;;;24.10;91.60;;;;;;5005645;28;20036;-57
2021/07/15 13:18:21;;;;;;;20.25;14.93;;;24.00;91.60;;;;;;5006292;28;20034;-57
2021/07/15 13:20:47;;;;;;;19.45;15.63;;;24.00;91.70;;;;;;4997599;28;20084;-57
2021/07/15 13:23:13;;;;;;;23.67;16.00;;;24.00;91.80;;;;;;5007433;28;20026;-57
2021/07/15 13:25:43;;;;;;;24.13;16.63;;;24.00;91.90;;;;;;5007405;28;20022;-57
2021/07/15 13:28:09;;;;;;;19.50;16.15;;;24.00;92.00;;;;;;5007310;28;20091;-57
2021/07/15 13:30:37;;;;;;;24.83;17.58;;;24.00;92.10;;;;;;5017437;28;20073;-57
2021/07/15 13:33:19;;;;;;;22.65;17.48;;;23.90;92.10;;;;;;5027486;28;20385;-57
2021/07/15 13:35:45;;;;;;;30.50;18.58;;;23.80;92.30;;;;;;5027406;28;20025;-57
2021/07/15 13:38:11;;;;;;;21.30;17.13;;;23.80;92.40;;;;;;5013398;28;20464;-57
2021/07/15 13:40:37;;;;;;;19.63;16.80;;;23.70;92.40;;;;;;5024113;28;20038;-57
2021/07/15 13:43:09;;;;;;;20.95;16.55;;;23.70;92.30;;;;;;5025595;28;20137;-57
2021/07/15 13:45:38;;;;;;;21.30;16.55;;;23.70;92.30;;;;;;5027864;28;20625;-57
2021/07/15 13:48:14;;;;;;;20.80;17.00;;;23.60;92.30;;;;;;5026770;28;20659;-57
2021/07/15 13:50:40;;;;;;;22.00;18.00;;;23.60;92.50;;;;;;5024732;28;20064;-57
2021/07/15 13:53:06;;;;;;;20.90;16.55;;;23.50;92.80;;;;;;5026409;28;20048;-57
2021/07/15 13:55:31;;;;;;;22.10;16.08;;;23.50;92.50;;;;;;5027299;28;20021;-57
2021/07/15 13:57:57;;;;;;;22.42;17.98;;;23.50;92.50;;;;;;5024504;28;20208;-57
2021/07/15 14:00:25;;;;;;;21.13;17.85;;;23.50;92.60;;;;;;5027006;28;20387;-57
2021/07/15 14:02:54;;;;;;;21.90;17.50;;;23.50;92.70;;;;;;5025895;28;20399;-56
2021/07/15 14:05:34;;;;;;;22.83;17.60;;;23.50;92.60;;;;;;5027063;28;20061;-57
2021/07/15 14:08:00;;;;;;;26.08;19.67;;;23.50;92.60;;;;;;5026008;28;20104;-57
2021/07/15 14:10:26;;;;;;;26.65;21.50;;;23.50;92.60;;;;;;5025707;28;20045;-57
2021/07/15 14:12:52;;;;;;;27.75;21.55;;;23.40;92.70;;;;;;5027319;28;20029;-57
2021/07/15 14:15:37;;;;;;;28.42;23.38;;;23.40;92.70;;;;;;5027534;28;20025;-57
2021/07/15 14:18:24;;;;;;;25.92;20.95;;;23.50;92.80;;;;;;5027802;28;20508;-57
2021/07/15 14:20:51;;;;;;;23.95;19.63;;;23.30;93.20;;;;;;5026931;28;20029;-57
2021/07/15 14:23:19;;;;;;;18.73;15.73;;;23.30;93.20;;;;;;5026631;28;20087;-57
2021/07/15 14:25:45;;;;;;;18.05;14.52;;;23.40;93.60;;;;;;5024743;28;20032;-57
2021/07/15 14:28:10;;;;;;;17.75;13.85;;;23.30;94.00;;;;;;5025161;28;20033;-57
2021/07/15 14:30:36;;;;;;;15.73;12.93;;;23.30;93.70;;;;;;5027369;28;20144;-57
2021/07/15 14:33:03;;;;;;;13.27;9.82;;;23.40;93.70;;;;;;5027277;28;20518;-57
2021/07/15 14:35:29;;;;;;;12.18;9.68;;;23.40;93.70;;;;;;5027746;28;20022;-56
2021/07/15 14:37:54;;;;;;;13.68;8.85;;;23.30;93.80;;;;;;5022239;28;20404;-56
2021/07/15 14:40:21;;;;;;;10.23;8.32;;;23.40;93.70;;;;;;5018282;28;20029;-57
2021/07/15 14:42:46;;;;;;;8.85;7.95;;;23.30;93.80;;;;;;5027413;28;20451;-57
2021/07/15 14:45:12;;;;;;;9.65;7.32;;;23.40;93.80;;;;;;5027990;28;20102;-57
2021/07/15 14:47:41;;;;;;;7.82;7.03;;;23.40;94.00;;;;;;5027575;28;20036;-57
2021/07/15 14:50:07;;;;;;;8.30;6.80;;;23.40;94.00;;;;;;5027069;28;20037;-57
2021/07/15 14:52:33;;;;;;;9.65;7.80;;;23.40;94.10;;;;;;5026259;28;20025;-57
2021/07/15 14:54:58;;;;;;;9.15;7.78;;;23.40;94.20;;;;;;5027383;28;20075;-57
2021/07/15 15:12:13;;;;;;;11.98;10.68;;;22.50;97.20;;;;;;5066888;27;20397;-75
2021/07/15 15:14:39;;;;;;;15.70;11.82;;;22.50;97.60;;;;;;5065264;28;20442;-74
2021/07/15 15:17:04;;;;;;;14.80;11.90;;;22.50;97.40;;;;;;5053125;28;20468;-75
2021/07/15 15:19:30;;;;;;;16.88;14.35;;;22.40;97.60;;;;;;5065814;28;20052;-75
2021/07/15 15:21:56;;;;;;;18.77;14.35;;;22.40;97.60;;;;;;5065682;28;20095;-74
2021/07/15 15:24:25;;;;;;;18.50;14.80;;;22.40;97.40;;;;;;5065639;28;20060;-75
2021/07/15 15:26:51;;;;;;;19.20;13.68;;;22.50;97.30;;;;;;5065539;28;20475;-73
2021/07/15 15:30:10;;;;;;;21.90;12.88;;;22.50;97.40;;;;;;5064074;28;20156;-74
2021/07/15 15:32:36;;;;;;;17.88;13.18;;;22.40;97.40;;;;;;5025809;28;20037;-76
2021/07/15 15:35:03;;;;;;;16.95;14.20;;;22.40;97.60;;;;;;5052476;28;20040;-74
2021/07/15 15:37:28;;;;;;;13.73;12.30;;;22.40;97.60;;;;;;5046402;28;20032;-76
2021/07/15 15:39:54;;;;;;;14.50;12.80;;;22.30;97.70;;;;;;5049170;28;20013;-73
2021/07/15 15:42:19;;;;;;;20.13;12.48;;;22.30;97.60;;;;;;5061623;28;20471;-74
2021/07/15 15:44:45;;;;;;;17.98;12.27;;;22.30;97.70;;;;;;5060620;28;20120;-78
2021/07/15 15:47:11;;;;;;;14.40;12.07;;;22.30;97.80;;;;;;5056332;28;20024;-77
2021/07/15 15:49:40;;;;;;;14.68;11.73;;;22.20;97.80;;;;;;5057918;28;20029;-77
2021/07/15 15:52:07;;;;;;;14.05;12.40;;;22.30;98.00;;;;;;5059774;28;20025;-75
2021/07/15 15:54:33;;;;;;;12.57;10.93;;;22.20;98.00;;;;;;5057963;28;20071;-77
2021/07/15 15:56:59;;;;;;;15.50;11.00;;;22.30;98.20;;;;;;5062318;28;20107;-76
2021/07/15 15:59:25;;;;;;;11.95;10.65;;;22.40;97.60;;;;;;5055223;28;20479;-77
2021/07/15 16:01:51;;;;;;;12.05;10.10;;;22.50;97.40;;;;;;5059929;28;20056;-76
2021/07/15 16:04:17;;;;;;;11.15;10.05;;;22.50;97.20;;;;;;5055380;28;20064;-76
2021/07/15 16:06:42;;;;;;;12.15;10.52;;;22.50;97.00;;;;;;5056271;28;20064;-79
2021/07/15 16:09:08;;;;;;;12.63;11.18;;;22.60;96.90;;;;;;5059541;28;20028;-77
2021/07/15 16:11:35;;;;;;;12.07;10.77;;;22.60;96.80;;;;;;5053190;28;20501;-78
2021/07/15 16:14:01;;;;;;;13.57;10.93;;;22.70;96.60;;;;;;5052926;28;20052;-77
2021/07/15 16:16:26;;;;;;;13.23;10.52;;;22.70;96.50;;;;;;5056913;28;20418;-76
2021/07/15 16:18:52;;;;;;;11.80;10.63;;;22.80;96.50;;;;;;5053816;28;20021;-78
2021/07/15 16:21:17;;;;;;;13.93;11.02;;;22.80;96.40;;;;;;5059552;28;20078;-79
2021/07/15 16:23:43;;;;;;;12.80;11.43;;;22.80;96.20;;;;;;5041129;28;20052;-77
2021/07/15 16:26:08;;;;;;;12.80;11.50;;;22.80;96.20;;;;;;5034156;28;20087;-78
2021/07/15 16:28:34;;;;;;;12.85;11.50;;;22.90;96.40;;;;;;5039102;28;20446;-79
2021/07/15 16:30:59;;;;;;;14.68;11.43;;;22.90;96.10;;;;;;5039339;28;20052;-77
2021/07/15 16:33:26;;;;;;;13.45;12.13;;;22.90;96.00;;;;;;5045618;28;20033;-79
2021/07/15 16:35:55;;;;;;;13.32;12.00;;;23.00;96.00;;;;;;5042690;28;20031;-81
2021/07/15 16:38:24;;;;;;;12.80;11.52;;;23.00;95.90;;;;;;5036978;28;20033;-78
2021/07/15 16:40:50;;;;;;;13.68;12.10;;;23.00;95.90;;;;;;5040720;28;20472;-79
2021/07/15 16:43:15;;;;;;;13.48;12.18;;;23.00;95.90;;;;;;5035576;28;20039;-77
2021/07/15 16:45:41;;;;;;;13.10;11.73;;;23.00;95.90;;;;;;5036314;28;20116;-77
2021/07/15 16:48:12;;;;;;;13.25;11.95;;;23.00;95.80;;;;;;5043778;28;20029;-77
2021/07/15 16:50:37;;;;;;;13.02;11.70;;;23.00;95.90;;;;;;5041587;28;20083;-75
2021/07/15 16:53:04;;;;;;;13.52;11.52;;;23.00;95.90;;;;;;5039020;28;20025;-83
2021/07/15 16:55:29;;;;;;;14.80;13.30;;;22.90;95.90;;;;;;5042578;28;20531;-85
2021/07/15 16:57:55;;;;;;;14.88;13.32;;;22.90;96.00;;;;;;5047986;28;20104;-88
2021/07/15 17:00:21;;;;;;;16.38;14.02;;;22.90;96.00;;;;;;5030122;28;20021;-88
2021/07/15 17:02:46;;;;;;;16.58;14.88;;;22.90;96.00;;;;;;5041712;28;20447;-86
2021/07/15 17:05:18;;;;;;;17.83;16.02;;;22.90;95.90;;;;;;5039925;28;20029;-86
2021/07/15 17:07:44;;;;;;;20.23;17.05;;;22.90;95.90;;;;;;5038457;28;20125;-85
2021/07/15 17:10:11;;;;;;;24.50;18.05;;;22.90;95.90;;;;;;5040843;28;20272;-82
2021/07/15 17:12:36;;;;;;;20.65;18.52;;;23.00;95.90;;;;;;5037122;28;20021;-86
2021/07/15 17:15:03;;;;;;;24.42;19.48;;;23.00;95.80;;;;;;5038780;28;20556;-77
2021/07/15 17:17:29;;;;;;;24.42;20.42;;;23.00;95.70;;;;;;5037948;28;20030;-82
2021/07/15 17:19:54;;;;;;;26.55;22.67;;;23.00;95.80;;;;;;5043847;28;20075;-83
2021/07/15 17:22:21;;;;;;;25.67;22.88;;;23.00;95.80;;;;;;5040381;28;20211;-86
2021/07/15 17:24:47;;;;;;;23.40;20.63;;;23.00;95.70;;;;;;5037240;28;20025;-76
2021/07/15 17:27:12;;;;;;;25.17;21.80;;;23.00;95.70;;;;;;5046265;28;20043;-78
2021/07/15 17:29:38;;;;;;;25.15;22.02;;;23.00;95.60;;;;;;5039692;28;20065;-73
2021/07/15 17:32:04;;;;;;;25.45;20.25;;;23.00;95.50;;;;;;5045168;28;20029;-78
2021/07/15 17:34:29;;;;;;;22.30;19.63;;;23.00;95.50;;;;;;5044482;28;20052;-77
2021/07/15 17:36:57;;;;;;;23.73;20.05;;;23.00;95.50;;;;;;5041889;28;20025;-76
2021/07/15 17:39:28;;;;;;;27.58;21.02;;;23.00;95.30;;;;;;5049673;28;20063;-78
2021/07/15 17:41:55;;;;;;;25.85;20.83;;;23.00;95.30;;;;;;5050259;28;20029;-76
2021/07/15 17:44:21;;;;;;;27.25;23.10;;;23.00;95.30;;;;;;5030988;28;20061;-77
2021/07/15 17:46:50;;;;;;;24.35;21.85;;;22.90;95.30;;;;;;5031016;28;20488;-77
2021/07/15 17:49:16;;;;;;;25.13;22.38;;;22.90;95.30;;;;;;5044558;28;20037;-77
2021/07/15 17:51:44;;;;;;;28.85;24.08;;;23.00;95.30;;;;;;5048050;28;20029;-79
2021/07/15 17:54:10;;;;;;;26.85;23.50;;;23.10;95.20;;;;;;5043891;28;20025;-75
2021/07/15 17:56:36;;;;;;;26.83;23.88;;;23.10;95.10;;;;;;5048704;28;20411;-75
2021/07/15 17:59:02;;;;;;;26.85;23.88;;;23.10;94.90;;;;;;5039841;28;20026;-76
2021/07/15 18:01:28;;;;;;;28.00;24.00;;;23.20;94.80;;;;;;5033846;28;20041;-73
2021/07/15 18:03:53;;;;;;;30.55;25.70;;;23.30;94.70;;;;;;5040728;28;20112;-76
2021/07/15 18:06:19;;;;;;;28.90;24.67;;;23.30;94.60;;;;;;5048773;28;20428;-73
2021/07/15 18:08:45;;;;;;;30.67;25.75;;;23.30;94.60;;;;;;5044234;28;20026;-72
2021/07/15 18:11:10;;;;;;;28.55;25.52;;;23.30;94.60;;;;;;5043150;28;20092;-70
2021/07/15 18:13:36;;;;;;;32.33;27.00;;;23.30;94.80;;;;;;5030660;28;20014;-76
2021/07/15 18:16:02;;;;;;;35.65;26.75;;;23.30;94.60;;;;;;5040532;28;20029;-74
2021/07/15 18:18:27;;;;;;;30.75;26.98;;;23.40;94.60;;;;;;5039515;28;20021;-74
2021/07/15 18:20:53;;;;;;;28.13;24.80;;;23.40;94.70;;;;;;5035833;28;20135;-76
2021/07/15 18:23:19;;;;;;;69.38;44.78;;;23.50;94.40;;;;;;5039749;28;20033;-68